• Join FlightAware (Why Join?)
  • Login
  • US Flag 
02:31AM EDT


 

Airport Tracker/Info


-or-


 

Live Flight TrackerFlight Track Log ✈ N818PW ✈ 29-Aug-2013 ✈ KRFD - KMSN

Flight Track Log - Related Links

Times and Time Zones

All times are in EDT time to prevent confusion due to time zone crossing. See the N818PW flight status page for this flight to view local times or setup timezone preferences in your user account.

Time Position Orientation Groundspeed Altitude Reporting Facility
EDT Latitude Longitude Course Direction KTS MPH feet Rate Location/Type
06:39PM 42.1750 -89.0930 200° South 118 136 1,200  Level FlightAware
06:39PM 42.1710 -89.0980 223° Southwest 131 151 1,300 1,020 Climbing FlightAware
06:39PM 42.1700 -89.1040 257° West 139 160 1,500 900 Climbing FlightAware
06:40PM 42.1710 -89.1080 289° West 140 161 1,500 960 Level FlightAware
06:40PM 42.1720 -89.1140 283° West 139 160 1,700 1,860 Climbing FlightAware
06:40PM 42.1740 -89.1210 291° West 139 160 2,000 1,500 Climbing FlightAware
06:40PM 42.1770 -89.1270 304° West 141 162 2,100 1,020 Climbing FlightAware
06:40PM 42.1860 -89.1410 311° West 148 170 2,500 1,200 Climbing FlightAware
06:41PM 42.1960 -89.1550 314° West 152 175 2,900 600 Climbing FlightAware
06:41PM 42.2060 -89.1700 312° West 179 206 2,900  Level FlightAware
06:41PM 42.2170 -89.1870 311° West 190 219 2,900  Level FlightAware
06:41PM 42.2230 -89.1950 315° West 193 222 2,900  Level FlightAware
06:42PM 42.2300 -89.1980 342° North 194 223 2,900 420 Level FlightAware
06:42PM 42.2350 -89.1990 352° North 192 221 3,000 1,080 Climbing FlightAware
06:42PM 42.2450 -89.2010 352° North 186 214 3,200 960 Climbing FlightAware
06:42PM 42.2660 -89.2030 356° North 177 204 3,600 1,080 Climbing FlightAware
06:43PM 42.2810 -89.2050 354° North 168 193 4,000 1,200 Climbing FlightAware
06:43PM 42.2930 -89.2070 353° North 158 182 4,300 1,440 Climbing FlightAware
06:43PM 42.3080 -89.2090 354° North 146 168 4,900 1,440 Climbing FlightAware
06:44PM 42.3210 -89.2110 354° North 138 159 5,300 1,380 Climbing FlightAware
06:44PM 42.3330 -89.2130 353° North 132 152 5,800 840 Climbing FlightAware
06:44PM 42.3470 -89.2150 354° North 155 178 5,900 120 Climbing FlightAware
06:45PM 42.3620 -89.2180 352° North 173 199 5,900  Level FlightAware
06:45PM 42.3830 -89.2210 354° North 181 208 5,900  Level FlightAware
06:45PM 42.3990 -89.2240 352° North 183 211 5,900  Level FlightAware
06:46PM 42.4160 -89.2260 355° North 186 214 5,900  Level FlightAware
06:46PM 42.4330 -89.2290 353° North 187 215 5,900  Level FlightAware
06:46PM 42.4510 -89.2310 355° North 188 216 5,900  Level FlightAware
06:47PM 42.4700 -89.2340 353° North 188 216 5,900  Level FlightAware
06:47PM 42.4870 -89.2370 353° North 188 216 5,900  Level FlightAware
06:47PM 42.5060 -89.2400 353° North 189 217 5,900  Level FlightAware
06:48PM 42.5260 -89.2430 354° North 189 217 5,900  Level FlightAware
06:48PM 42.5420 -89.2450 355° North 189 217 5,900  Level FlightAware
06:48PM 42.5580 -89.2470 355° North 189 217 5,900  Level FlightAware
06:49PM 42.5790 -89.2510 352° North 189 217 5,900  Level FlightAware
06:49PM 42.6000 -89.2540 354° North 189 217 5,900  Level FlightAware
06:49PM 42.6100 -89.2560 352° North 190 219 5,900  Level FlightAware
06:50PM 42.6280 -89.2580 355° North 190 219 5,900  Level FlightAware
06:50PM 42.6490 -89.2620 352° North 190 219 5,900  Level FlightAware
06:50PM 42.6660 -89.2640 355° North 189 217 5,900  Level FlightAware
06:51PM 42.6840 -89.2660 355° North 190 219 5,900  Level FlightAware
06:51PM 42.6910 -89.2640 12° North 190 219 5,900  Level FlightAware
06:51PM 42.7000 -89.2590 22° Northeast 190 219 5,900  Level FlightAware
06:51PM 42.7180 -89.2480 24° Northeast 190 219 5,900  Level FlightAware
06:52PM 42.7340 -89.2390 22° Northeast 191 220 5,900 120 Level FlightAware
06:52PM 42.7510 -89.2290 23° Northeast 190 219 6,000  Climbing FlightAware
06:53PM 42.7700 -89.2180 23° Northeast 191 220 5,900 -180 Descending FlightAware
06:53PM 42.7870 -89.2090 21° North 191 220 5,900  Level FlightAware
06:53PM 42.8030 -89.1990 25° Northeast 192 221 5,900  Level FlightAware
06:53PM 42.8090 -89.1960 20° North 191 220 5,900 180 Level FlightAware
06:54PM 42.8270 -89.1910 12° North 192 221 6,000  Climbing FlightAware
06:54PM 42.8480 -89.1840 14° North 192 221 5,900 -180 Descending FlightAware
06:54PM 42.8610 -89.1790 16° North 192 221 5,900  Level FlightAware
06:55PM 42.8820 -89.1720 14° North 192 221 5,900  Level FlightAware
06:55PM 42.8960 -89.1680 12° North 192 221 5,900  Level FlightAware
06:55PM 42.9130 -89.1650 North 191 220 5,900 -480 Level FlightAware
06:56PM 42.9330 -89.1680 354° North 201 231 5,600 -840 Descending FlightAware
06:56PM 42.9540 -89.1700 356° North 205 236 5,300 -1,020 Descending FlightAware
06:56PM 42.9680 -89.1720 354° North 206 237 5,000 -1,080 Descending FlightAware
06:57PM 42.9930 -89.1760 353° North 209 241 4,600 -960 Descending FlightAware
06:57PM 43.0120 -89.1780 356° North 212 244 4,300 -960 Descending FlightAware
06:57PM 43.0240 -89.1800 353° North 214 246 4,100 -1,020 Descending FlightAware
06:58PM 43.0480 -89.1850 351° North 216 249 3,700 -1,020 Descending FlightAware
06:58PM 43.0640 -89.1910 345° North 209 241 3,400 -1,020 Descending FlightAware
06:58PM 43.0880 -89.2000 345° North 202 232 3,000 -1,080 Descending FlightAware
06:59PM 43.1090 -89.2100 341° North 198 228 2,500 -600 Descending FlightAware
06:59PM 43.1280 -89.2200 339° North 198 228 2,500 -420 Level FlightAware
07:00PM 43.1390 -89.2290 329° Northwest 180 207 2,200 -420 Descending FlightAware
07:00PM 43.1580 -89.2440 330° Northwest 178 205 2,200  Level FlightAware
07:00PM 43.1600 -89.2590 280° West 147 169 2,200  Level FlightAware
07:01PM 43.1690 -89.2790 302° West 139 160 2,200 -720 Level FlightAware
07:01PM 43.1739 -89.3067 302° West 148 170 1,400 -660 Descending Chicago Center
07:02PM 43.1533 -89.3292 219° Southwest 118 136 1,100 -300 Descending Chicago Center
07:04PM 43.1333 -89.3333 216° Southwest  Level FlightAware Approximate